createdAt,value
2023-05-20T00:01:10.591Z,67.35
2023-05-20T00:03:39.140Z,67.67
2023-05-20T00:06:07.861Z,67.76
2023-05-20T00:08:36.349Z,68.08
2023-05-20T00:11:04.615Z,68.24
2023-05-20T00:13:33.092Z,68.18
2023-05-20T00:16:01.495Z,68.42
2023-05-20T00:18:29.974Z,68.32
2023-05-20T00:20:59.145Z,68.50
2023-05-20T00:23:27.317Z,68.39
2023-05-20T00:25:56.281Z,68.72
2023-05-20T00:28:25.707Z,68.74
2023-05-20T00:30:54.987Z,68.76
2023-05-20T00:33:23.278Z,68.75
2023-05-20T00:35:51.562Z,68.73
2023-05-20T00:38:20.041Z,69.11
2023-05-20T00:40:48.521Z,68.87
2023-05-20T00:43:16.699Z,68.98
2023-05-20T00:45:44.996Z,68.91
2023-05-20T00:48:13.768Z,68.94
2023-05-20T00:50:42.124Z,69.20
2023-05-20T00:53:10.616Z,69.15
2023-05-20T00:55:38.820Z,69.23
2023-05-20T00:58:07.050Z,69.19
2023-05-20T01:00:35.941Z,69.21
2023-05-20T01:03:04.330Z,69.29
2023-05-20T01:05:32.878Z,69.40
2023-05-20T01:08:01.691Z,69.66
2023-05-20T01:10:30.878Z,69.65
2023-05-20T01:13:02.962Z,69.61
2023-05-20T01:15:31.937Z,69.73
2023-05-20T01:18:02.724Z,69.75
2023-05-20T01:20:32.801Z,70.16
2023-05-20T01:23:01.689Z,70.07
2023-05-20T01:25:30.149Z,70.12
2023-05-20T01:27:58.428Z,70.27
2023-05-20T01:30:31.230Z,70.10
2023-05-20T01:33:03.041Z,70.31
2023-05-20T01:35:32.374Z,70.46
2023-05-20T01:38:01.775Z,70.65
2023-05-20T01:40:31.063Z,70.59
2023-05-20T01:42:59.550Z,70.70
2023-05-20T01:45:27.815Z,70.66
2023-05-20T01:47:56.242Z,70.68
2023-05-20T01:50:24.687Z,70.73
2023-05-20T01:52:52.966Z,70.68
2023-05-20T01:55:21.227Z,70.66
2023-05-20T01:57:49.601Z,70.75
2023-05-20T02:00:17.874Z,70.81
2023-05-20T02:02:46.246Z,70.86
2023-05-20T02:05:14.937Z,70.75
2023-05-20T02:07:44.748Z,70.72
2023-05-20T02:10:14.048Z,70.73
2023-05-20T02:12:43.044Z,70.74
2023-05-20T02:15:11.417Z,70.64
2023-05-20T02:17:40.013Z,70.86
2023-05-20T02:20:08.919Z,70.93
2023-05-20T02:22:37.168Z,70.90
2023-05-20T02:25:06.169Z,70.86
2023-05-20T02:27:34.444Z,70.86
2023-05-20T02:30:02.820Z,70.88
2023-05-20T02:32:31.184Z,70.99
2023-05-20T02:35:00.997Z,71.05
2023-05-20T02:37:29.881Z,71.29
2023-05-20T02:39:58.266Z,71.24
2023-05-20T02:42:26.641Z,71.34
2023-05-20T02:44:58.711Z,71.58
2023-05-20T02:47:27.633Z,71.73
2023-05-20T02:49:56.173Z,71.59
2023-05-20T02:52:24.347Z,71.62
2023-05-20T02:54:53.239Z,71.75
2023-05-20T02:57:21.615Z,71.65
2023-05-20T02:59:50.013Z,71.59
2023-05-20T03:02:18.463Z,71.59
2023-05-20T03:04:47.645Z,71.61
2023-05-20T03:07:19.888Z,71.59
2023-05-20T03:09:48.418Z,71.66
2023-05-20T03:12:16.800Z,71.47
2023-05-20T03:14:45.778Z,71.41
2023-05-20T03:17:14.887Z,71.33
2023-05-20T03:19:44.378Z,71.35
2023-05-20T03:22:12.960Z,71.32
2023-05-20T03:24:42.666Z,71.37
2023-05-20T03:27:10.842Z,71.53
2023-05-20T03:29:39.521Z,71.45
2023-05-20T03:32:10.649Z,71.57
2023-05-20T03:34:39.608Z,71.68
2023-05-20T03:37:08.440Z,71.58
2023-05-20T03:39:36.932Z,71.66
2023-05-20T03:42:05.818Z,71.70
2023-05-20T03:44:34.600Z,71.55
2023-05-20T03:47:04.052Z,71.54
2023-05-20T03:49:32.676Z,71.46
2023-05-20T03:52:00.953Z,71.36
2023-05-20T03:54:30.358Z,71.32
2023-05-20T03:57:01.298Z,71.28
2023-05-20T03:59:29.873Z,71.31
2023-05-20T04:01:58.159Z,71.17
2023-05-20T04:04:26.635Z,71.30
2023-05-20T04:06:54.898Z,71.26
2023-05-20T04:09:23.588Z,71.30
2023-05-20T04:11:51.763Z,71.35
2023-05-20T04:14:20.033Z,71.28
2023-05-20T04:16:50.445Z,71.25
2023-05-20T04:19:22.019Z,71.34
2023-05-20T04:21:50.798Z,71.25
2023-05-20T04:24:19.179Z,71.20
2023-05-20T04:26:48.495Z,71.27
2023-05-20T04:29:16.854Z,71.14
2023-05-20T04:31:48.089Z,71.04
2023-05-20T04:34:19.852Z,71.00
2023-05-20T04:36:49.264Z,71.13
2023-05-20T04:39:19.369Z,71.07
2023-05-20T04:41:49.591Z,71.13
2023-05-20T04:44:18.174Z,71.03
2023-05-20T04:46:46.447Z,71.09
2023-05-20T04:49:16.154Z,70.99
2023-05-20T04:51:45.148Z,70.91
2023-05-20T04:54:14.137Z,70.70
2023-05-20T04:56:42.309Z,70.57
2023-05-20T04:59:10.891Z,70.48
2023-05-20T05:01:39.208Z,70.67
2023-05-20T05:04:07.896Z,70.61
2023-05-20T05:06:37.149Z,70.82
2023-05-20T05:09:05.833Z,70.79
2023-05-20T05:11:34.315Z,70.74
2023-05-20T05:14:02.591Z,70.82
2023-05-20T05:16:31.614Z,70.76
2023-05-20T05:19:00.113Z,70.59
2023-05-20T05:21:29.562Z,70.46
2023-05-20T05:23:58.543Z,70.43
2023-05-20T05:26:26.937Z,70.59
2023-05-20T05:28:55.924Z,70.37
2023-05-20T05:31:24.199Z,70.37
2023-05-20T05:33:52.480Z,70.47
2023-05-20T05:36:20.855Z,70.33
2023-05-20T05:38:49.128Z,70.31
2023-05-20T05:41:17.296Z,70.26
2023-05-20T05:43:46.089Z,70.08
2023-05-20T05:46:14.898Z,70.04
2023-05-20T05:48:45.498Z,70.02
2023-05-20T05:51:13.670Z,69.99
2023-05-20T05:53:42.557Z,70.06
2023-05-20T05:56:11.348Z,69.83
2023-05-20T05:58:39.828Z,69.70
2023-05-20T06:01:08.414Z,69.77
2023-05-20T06:03:36.853Z,69.65
2023-05-20T06:06:05.366Z,69.70
2023-05-20T06:08:34.972Z,69.58
2023-05-20T06:11:03.244Z,69.55
2023-05-20T06:13:32.447Z,69.52
2023-05-20T06:16:00.833Z,69.23
2023-05-20T06:18:29.095Z,69.06
2023-05-20T06:21:03.520Z,69.04
2023-05-20T06:23:31.996Z,68.95
2023-05-20T06:26:03.764Z,68.91
2023-05-20T06:28:32.125Z,68.71
2023-05-20T06:31:00.825Z,68.51
2023-05-20T06:33:32.564Z,68.37
2023-05-20T06:36:04.425Z,68.47
2023-05-20T06:38:32.802Z,68.72
2023-05-20T06:41:01.497Z,68.62
2023-05-20T06:43:30.479Z,68.60
2023-05-20T06:46:07.175Z,68.44
2023-05-20T06:48:38.808Z,68.28
2023-05-20T06:51:11.610Z,68.36
2023-05-20T06:53:40.492Z,68.19
2023-05-20T06:56:08.954Z,68.24
2023-05-20T06:58:37.226Z,68.23
2023-05-20T07:01:06.020Z,68.12
2023-05-20T07:03:34.718Z,68.33
2023-05-20T07:06:03.488Z,68.26
2023-05-20T07:08:32.474Z,67.43
2023-05-20T07:11:00.962Z,67.48
2023-05-20T07:13:31.378Z,67.07
2023-05-20T07:16:00.220Z,67.21
2023-05-20T07:18:29.054Z,66.73
2023-05-20T07:20:58.458Z,66.63
2023-05-20T07:23:49.770Z,66.65
2023-05-20T07:26:18.657Z,66.40
2023-05-20T07:28:47.443Z,65.59
2023-05-20T07:31:17.311Z,65.86
2023-05-20T07:33:46.348Z,66.43
2023-05-20T07:36:15.247Z,66.49
2023-05-20T07:39:00.934Z,66.18
2023-05-20T07:41:32.268Z,66.04
2023-05-20T07:44:03.545Z,66.22
2023-05-20T07:46:33.135Z,66.53
2023-05-20T07:49:01.598Z,66.65
2023-05-20T07:51:30.078Z,66.75
2023-05-20T07:53:59.176Z,66.47
2023-05-20T07:56:28.573Z,66.58
2023-05-20T07:58:58.801Z,66.41
2023-05-20T08:01:30.553Z,66.49
2023-05-20T08:03:59.042Z,66.08
2023-05-20T08:06:29.552Z,65.98
2023-05-20T08:08:59.217Z,66.15
2023-05-20T08:11:31.531Z,65.93
2023-05-20T08:14:00.935Z,65.74
2023-05-20T08:16:31.299Z,66.04
2023-05-20T08:18:59.801Z,66.13
2023-05-20T08:21:28.930Z,65.79
2023-05-20T08:23:57.203Z,65.61
2023-05-20T08:26:25.582Z,65.18
2023-05-20T08:28:53.961Z,65.26
2023-05-20T08:31:22.680Z,65.32
2023-05-20T08:33:51.941Z,65.63
2023-05-20T08:36:20.118Z,64.99
2023-05-20T08:38:49.219Z,65.07
2023-05-20T08:41:18.097Z,65.08
2023-05-20T08:43:47.719Z,64.71
2023-05-20T08:46:18.170Z,64.70
2023-05-20T08:48:47.126Z,64.29
2023-05-20T08:51:16.828Z,63.68
2023-05-20T08:53:45.002Z,63.33
2023-05-20T08:56:13.589Z,63.28
2023-05-20T08:58:43.400Z,62.54
2023-05-20T09:01:11.671Z,62.14
2023-05-20T09:03:39.840Z,61.84
2023-05-20T09:06:09.551Z,61.31
2023-05-20T09:08:37.927Z,61.93
2023-05-20T09:11:06.612Z,61.70
2023-05-20T09:13:34.821Z,61.74
2023-05-20T09:16:03.656Z,61.92
2023-05-20T09:18:32.359Z,61.79
2023-05-20T09:21:06.579Z,61.50
2023-05-20T09:23:38.274Z,61.76
2023-05-20T09:26:07.117Z,61.03
2023-05-20T09:28:38.554Z,60.52
2023-05-20T09:31:07.655Z,60.43
2023-05-20T09:33:37.364Z,60.97
2023-05-20T09:36:08.772Z,60.72
2023-05-20T09:38:39.906Z,60.53
2023-05-20T09:41:11.786Z,60.14
2023-05-20T09:43:41.107Z,59.87
2023-05-20T09:46:09.557Z,59.79
2023-05-20T09:48:38.293Z,58.82
2023-05-20T09:51:08.192Z,58.71
2023-05-20T09:53:37.083Z,58.83
2023-05-20T09:56:06.177Z,59.68
2023-05-20T09:58:36.402Z,61.33
2023-05-20T10:01:07.279Z,62.40
2023-05-20T10:03:36.302Z,61.29
2023-05-20T10:06:10.636Z,60.15
2023-05-20T10:08:57.018Z,59.06
2023-05-20T10:11:39.035Z,57.89
2023-05-20T10:14:09.970Z,57.60
2023-05-20T10:16:52.229Z,57.26
2023-05-20T10:19:33.613Z,57.11
2023-05-20T10:22:06.544Z,57.22
2023-05-20T10:24:41.875Z,57.53
2023-05-20T10:27:12.970Z,57.24
2023-05-20T10:29:53.083Z,56.41
2023-05-20T10:32:28.814Z,56.76
2023-05-20T10:35:05.519Z,56.90
2023-05-20T10:37:42.154Z,56.53
2023-05-20T10:40:14.454Z,55.97
2023-05-20T10:42:43.478Z,56.91
2023-05-20T10:45:12.516Z,56.43
2023-05-20T10:47:56.472Z,56.14
2023-05-20T10:50:43.062Z,55.95
2023-05-20T10:53:25.635Z,55.70
2023-05-20T10:56:01.367Z,53.36
2023-05-20T10:58:37.656Z,52.10
2023-05-20T11:01:05.978Z,48.85
2023-05-20T11:03:35.886Z,47.53
2023-05-20T11:06:12.439Z,46.40
2023-05-20T11:08:41.023Z,45.16
2023-05-20T11:11:10.751Z,43.39
2023-05-20T11:13:39.111Z,42.08
2023-05-20T11:16:07.591Z,43.32
2023-05-20T11:18:36.695Z,42.62
2023-05-20T11:21:04.974Z,43.53
2023-05-20T11:23:33.876Z,42.98
2023-05-20T11:26:02.747Z,43.60
2023-05-20T11:28:33.321Z,43.80
2023-05-20T11:31:01.856Z,44.11
2023-05-20T11:33:30.844Z,43.78
2023-05-20T11:35:59.320Z,42.91
2023-05-20T11:38:28.208Z,41.55
2023-05-20T11:40:56.908Z,38.57
2023-05-20T11:43:25.587Z,37.68
2023-05-20T11:45:56.433Z,37.63
2023-05-20T11:48:24.991Z,38.95
2023-05-20T11:50:56.754Z,38.73
2023-05-20T11:53:25.472Z,39.19
2023-05-20T11:55:56.109Z,40.53
2023-05-20T11:58:29.586Z,41.20
2023-05-20T12:01:05.640Z,41.59
2023-05-20T12:03:37.914Z,41.45
2023-05-20T12:06:06.673Z,40.89
2023-05-20T12:08:34.837Z,41.11
2023-05-20T12:11:03.113Z,40.05
2023-05-20T12:13:32.170Z,39.91
2023-05-20T12:16:02.035Z,39.78
2023-05-20T12:18:30.295Z,39.88
2023-05-20T12:21:01.435Z,38.96
2023-05-20T12:23:34.282Z,37.87
2023-05-20T12:26:02.808Z,37.89
2023-05-20T12:28:32.410Z,37.80
2023-05-20T12:31:01.207Z,37.34
2023-05-20T12:33:29.576Z,37.48
2023-05-20T12:35:58.153Z,37.60
2023-05-20T12:38:26.424Z,38.16
2023-05-20T12:40:54.696Z,37.29
2023-05-20T12:43:22.976Z,36.30
2023-05-20T12:45:52.592Z,37.12
2023-05-20T12:48:20.750Z,37.20
2023-05-20T12:50:49.128Z,36.09
2023-05-20T12:53:17.403Z,36.32
2023-05-20T12:55:45.677Z,36.40
2023-05-20T12:58:14.056Z,36.16
2023-05-20T13:00:42.476Z,36.07
2023-05-20T13:03:11.620Z,36.10
2023-05-20T13:05:40.003Z,35.81
2023-05-20T13:08:10.325Z,34.94
2023-05-20T13:10:38.919Z,33.62
2023-05-20T13:13:07.188Z,34.40
2023-05-20T13:15:35.867Z,34.31
2023-05-20T13:18:06.907Z,34.05
2023-05-20T13:20:35.638Z,34.41
2023-05-20T13:23:04.186Z,33.70
2023-05-20T13:25:32.448Z,34.19
2023-05-20T13:28:01.133Z,34.37
2023-05-20T13:30:29.924Z,34.29
2023-05-20T13:32:58.329Z,34.80
2023-05-20T13:35:26.576Z,34.82
2023-05-20T13:37:54.740Z,34.31
2023-05-20T13:40:23.035Z,34.89
2023-05-20T13:42:51.240Z,34.54
2023-05-20T13:45:19.571Z,33.69
2023-05-20T13:47:47.795Z,34.35
2023-05-20T13:50:16.859Z,35.15
2023-05-20T13:52:45.112Z,35.71
2023-05-20T13:55:13.484Z,36.07
2023-05-20T13:57:42.579Z,36.53
2023-05-20T14:00:11.314Z,37.21
2023-05-20T14:02:39.622Z,37.32
2023-05-20T14:05:08.422Z,37.29
2023-05-20T14:07:36.805Z,37.52
2023-05-20T14:10:06.675Z,37.91
2023-05-20T14:12:34.883Z,38.13
2023-05-20T14:15:03.165Z,37.94
2023-05-20T14:17:31.478Z,37.73
2023-05-20T14:20:00.834Z,37.76
2023-05-20T14:22:29.111Z,37.70
2023-05-20T14:24:57.288Z,37.51
2023-05-20T14:27:25.871Z,36.70
2023-05-20T14:29:54.139Z,36.75
2023-05-20T14:32:22.466Z,36.96
2023-05-20T14:34:52.550Z,37.25
2023-05-20T14:37:20.705Z,37.55
2023-05-20T14:39:49.081Z,37.46
2023-05-20T14:42:17.263Z,37.56
2023-05-20T14:44:46.196Z,37.75
2023-05-20T14:47:19.332Z,38.12
2023-05-20T14:49:47.855Z,38.49
2023-05-20T14:52:17.639Z,39.39
2023-05-20T14:54:46.330Z,39.73
2023-05-20T14:57:16.169Z,39.63
2023-05-20T14:59:44.596Z,39.69
2023-05-20T15:02:15.452Z,39.73
2023-05-20T15:04:46.782Z,39.12
2023-05-20T15:07:15.770Z,38.75
2023-05-20T15:09:44.253Z,38.32
2023-05-20T15:12:12.528Z,38.12
2023-05-20T15:14:41.012Z,38.05
2023-05-20T15:17:09.401Z,38.48
2023-05-20T15:19:41.429Z,39.15
2023-05-20T15:22:09.956Z,39.74
2023-05-20T15:24:38.201Z,40.18
2023-05-20T15:27:06.678Z,40.72
2023-05-20T15:29:34.952Z,40.53
2023-05-20T15:32:03.442Z,40.04
2023-05-20T15:34:31.914Z,39.95
2023-05-20T15:37:00.200Z,39.65
2023-05-20T15:39:28.669Z,39.66
2023-05-20T15:41:59.616Z,39.07
2023-05-20T15:44:29.315Z,38.46
2023-05-20T15:46:57.490Z,38.24
2023-05-20T15:49:25.862Z,38.29
2023-05-20T15:52:02.822Z,38.84
2023-05-20T15:54:33.176Z,39.21
2023-05-20T15:57:02.818Z,39.74
2023-05-20T15:59:31.250Z,40.53
2023-05-20T16:01:59.483Z,41.73
2023-05-20T16:04:28.024Z,42.54
2023-05-20T16:06:56.897Z,43.27
2023-05-20T16:09:25.179Z,44.27
2023-05-20T16:11:53.651Z,44.73
2023-05-20T16:14:21.922Z,45.76
2023-05-20T16:16:50.327Z,45.89
2023-05-20T16:19:18.728Z,46.38
2023-05-20T16:21:47.058Z,46.94
2023-05-20T16:24:16.404Z,47.14
2023-05-20T16:26:44.735Z,47.69
2023-05-20T16:29:14.345Z,48.38
2023-05-20T16:31:46.960Z,48.73
2023-05-20T16:34:16.721Z,48.54
2023-05-20T16:36:45.828Z,49.03
2023-05-20T16:39:15.057Z,49.14
2023-05-20T16:41:44.101Z,49.35
2023-05-20T16:44:12.395Z,49.03
2023-05-20T16:46:40.874Z,49.07
2023-05-20T16:49:09.135Z,48.91
2023-05-20T16:51:37.512Z,49.79
2023-05-20T16:54:06.092Z,49.84
2023-05-20T16:56:35.597Z,50.09
2023-05-20T16:59:03.769Z,50.57
2023-05-20T17:01:32.197Z,51.02
2023-05-20T17:04:00.738Z,51.49
2023-05-20T17:06:29.102Z,51.71
2023-05-20T17:08:57.785Z,52.09
2023-05-20T17:11:26.367Z,52.37
2023-05-20T17:13:54.658Z,52.69
2023-05-20T17:16:23.059Z,53.02
2023-05-20T17:18:51.519Z,53.33
2023-05-20T17:21:23.066Z,53.58
2023-05-20T17:23:51.450Z,54.00
2023-05-20T17:26:19.913Z,54.34
2023-05-20T17:28:48.180Z,54.90
2023-05-20T17:31:16.776Z,55.45
2023-05-20T17:33:45.060Z,55.85
2023-05-20T17:36:14.242Z,55.97
2023-05-20T17:38:42.415Z,55.98
2023-05-20T17:41:10.783Z,56.39
2023-05-20T17:43:39.059Z,56.51
2023-05-20T17:46:07.497Z,56.81
2023-05-20T17:48:37.042Z,57.36
2023-05-20T17:51:05.933Z,57.45
2023-05-20T17:53:34.204Z,57.75
2023-05-20T17:56:02.375Z,58.22
2023-05-20T17:58:31.786Z,59.02
2023-05-20T18:01:00.285Z,59.36
2023-05-20T18:03:29.474Z,59.64
2023-05-20T18:05:57.830Z,60.20
2023-05-20T18:08:26.417Z,60.96
2023-05-20T18:10:54.697Z,62.32
2023-05-20T18:13:23.272Z,63.69
2023-05-20T18:15:52.868Z,63.92
2023-05-20T18:18:21.256Z,63.72
2023-05-20T18:20:49.425Z,63.28
2023-05-20T18:23:17.713Z,62.81
2023-05-20T18:25:46.490Z,62.65
2023-05-20T18:28:14.878Z,62.46
2023-05-20T18:30:43.140Z,63.20
2023-05-20T18:33:11.551Z,62.71
2023-05-20T18:35:39.904Z,62.10
2023-05-20T18:38:08.171Z,61.89
2023-05-20T18:40:37.048Z,61.63
2023-05-20T18:43:05.636Z,61.64
2023-05-20T18:45:34.026Z,60.79
2023-05-20T18:48:02.430Z,60.59
2023-05-20T18:50:31.126Z,60.86
2023-05-20T18:52:59.358Z,60.88
2023-05-20T18:55:28.452Z,60.72
2023-05-20T18:57:56.821Z,59.72
2023-05-20T19:00:25.510Z,58.45
2023-05-20T19:02:53.889Z,59.01
2023-05-20T19:05:23.335Z,59.95
2023-05-20T19:07:51.666Z,62.28
2023-05-20T19:10:19.875Z,64.67
2023-05-20T19:12:48.109Z,64.46
2023-05-20T19:15:16.996Z,64.35
2023-05-20T19:17:45.178Z,64.23
2023-05-20T19:20:14.572Z,64.03
2023-05-20T19:22:42.841Z,63.78
2023-05-20T19:25:11.737Z,63.39
2023-05-20T19:27:40.004Z,63.16
2023-05-20T19:30:10.894Z,62.71
2023-05-20T19:32:39.890Z,63.73
2023-05-20T19:35:08.823Z,63.37
2023-05-20T19:37:36.993Z,62.33
2023-05-20T19:40:06.822Z,62.12
2023-05-20T19:42:35.182Z,61.42
2023-05-20T19:45:03.866Z,60.72
2023-05-20T19:47:32.202Z,59.30
2023-05-20T19:50:00.517Z,58.36
2023-05-20T19:52:28.902Z,59.10
2023-05-20T19:54:57.178Z,61.64
2023-05-20T19:57:26.170Z,64.17
2023-05-20T19:59:54.444Z,63.80
2023-05-20T20:02:22.749Z,63.76
2023-05-20T20:04:52.122Z,63.56
2023-05-20T20:07:20.898Z,63.18
2023-05-20T20:09:51.835Z,62.72
2023-05-20T20:12:20.110Z,63.03
2023-05-20T20:14:48.408Z,63.23
2023-05-20T20:17:17.714Z,63.33
2023-05-20T20:19:48.830Z,63.56
2023-05-20T20:22:17.520Z,63.81
2023-05-20T20:24:45.696Z,64.17
2023-05-20T20:27:13.957Z,64.26
2023-05-20T20:29:42.339Z,64.51
2023-05-20T20:32:11.272Z,64.66
2023-05-20T20:34:39.600Z,64.81
2023-05-20T20:37:07.778Z,65.28
2023-05-20T20:39:37.392Z,65.36
2023-05-20T20:42:06.889Z,65.47
2023-05-20T20:44:35.165Z,65.95
2023-05-20T20:47:04.705Z,65.58
2023-05-20T20:49:33.654Z,65.51
2023-05-20T20:52:02.247Z,65.65
2023-05-20T20:54:30.511Z,65.91
2023-05-20T20:57:00.319Z,66.02
2023-05-20T20:59:29.114Z,66.06
2023-05-20T21:01:58.424Z,66.29
2023-05-20T21:04:28.102Z,66.57
2023-05-20T21:06:56.592Z,66.62
2023-05-20T21:09:24.798Z,66.62
2023-05-20T21:11:52.938Z,66.81
2023-05-20T21:14:21.109Z,66.82
2023-05-20T21:16:49.354Z,67.07
2023-05-20T21:19:17.701Z,67.25
2023-05-20T21:21:46.043Z,67.76
2023-05-20T21:24:14.328Z,68.29
2023-05-20T21:26:42.486Z,68.11
2023-05-20T21:29:12.292Z,67.90
2023-05-20T21:31:40.584Z,67.59
2023-05-20T21:34:08.946Z,66.60
2023-05-20T21:36:37.440Z,66.03
2023-05-20T21:39:05.805Z,65.69
2023-05-20T21:41:33.974Z,64.73
2023-05-20T21:44:02.154Z,63.97
2023-05-20T21:46:30.651Z,63.72
2023-05-20T21:48:58.908Z,63.87
2023-05-20T21:51:27.198Z,64.09
2023-05-20T21:53:55.351Z,64.39
2023-05-20T21:56:23.827Z,64.40
2023-05-20T21:58:51.999Z,64.65
2023-05-20T22:01:20.209Z,64.44
2023-05-20T22:03:51.285Z,64.33
2023-05-20T22:06:21.568Z,64.31
2023-05-20T22:08:49.911Z,64.02
2023-05-20T22:11:19.967Z,64.01
2023-05-20T22:13:48.304Z,63.99
2023-05-20T22:16:16.944Z,63.67
2023-05-20T22:18:48.092Z,63.69
2023-05-20T22:21:16.817Z,63.63
2023-05-20T22:23:44.991Z,63.69
2023-05-20T22:26:13.266Z,63.71
2023-05-20T22:28:41.637Z,63.51
2023-05-20T22:31:09.963Z,63.56
2023-05-20T22:33:41.615Z,63.74
2023-05-20T22:36:10.055Z,63.76
2023-05-20T22:38:38.319Z,63.50
2023-05-20T22:41:06.504Z,63.91
2023-05-20T22:43:36.003Z,63.57
2023-05-20T22:46:04.230Z,63.66
2023-05-20T22:48:32.442Z,63.79
2023-05-20T22:51:01.561Z,64.04
2023-05-20T22:53:30.032Z,64.21
2023-05-20T22:56:00.195Z,63.68
2023-05-20T22:58:29.953Z,63.60
2023-05-20T23:00:59.850Z,64.07
2023-05-20T23:03:28.852Z,63.57
2023-05-20T23:05:57.127Z,63.47
2023-05-20T23:08:25.408Z,63.48
2023-05-20T23:10:53.571Z,63.39
2023-05-20T23:13:21.846Z,63.43
2023-05-20T23:15:50.427Z,63.69
2023-05-20T23:18:18.916Z,63.99
2023-05-20T23:20:47.896Z,64.45
2023-05-20T23:23:16.567Z,64.17
2023-05-20T23:25:46.327Z,63.90
2023-05-20T23:28:14.675Z,63.90
2023-05-20T23:30:42.948Z,63.93
2023-05-20T23:33:11.315Z,64.22
2023-05-20T23:35:39.601Z,65.29
2023-05-20T23:38:07.968Z,65.20
2023-05-20T23:40:36.461Z,65.01
2023-05-20T23:43:04.829Z,64.65
2023-05-20T23:45:33.138Z,64.66
2023-05-20T23:48:01.950Z,64.82
2023-05-20T23:50:30.269Z,65.00
2023-05-20T23:52:59.972Z,64.79
2023-05-20T23:55:32.036Z,65.06
2023-05-20T23:58:00.311Z,64.75
